Terminal Aerodrome Forecast
Issued by NWS Paducah, KY

Home | Current Version | Previous Version | Text Only | Print | Product List | Glossary On
Versions: 1 2 3 4 5 6 7 8 9 10 11 12 13
000
FTUS43 KPAH 261736
TAFPAH
TAF
KPAH 261736Z 2618/2718 21013G21KT P6SM SCT030 BKN050
     FM270000 21007KT P6SM SCT035 BKN050
     FM270800 22005KT P6SM SCT009 BKN015=

USA.gov is the U.S. government's official web portal to all federal, state and local government web resources and services.